sensor_id;sensor_type;location;lat;lon;timestamp;P1;durP1;ratioP1;P2;durP2;ratioP2
68938;SDS011;59064;45.294;11.816;2023-06-26T00:02:17;7.30;;;4.50;;
68938;SDS011;59064;45.294;11.816;2023-06-26T00:04:43;8.40;;;4.20;;
68938;SDS011;59064;45.294;11.816;2023-06-26T00:07:08;7.40;;;4.30;;
68938;SDS011;59064;45.294;11.816;2023-06-26T00:09:34;8.40;;;4.30;;
68938;SDS011;59064;45.294;11.816;2023-06-26T00:12:00;8.30;;;4.30;;
68938;SDS011;59064;45.294;11.816;2023-06-26T00:14:26;7.10;;;4.10;;
68938;SDS011;59064;45.294;11.816;2023-06-26T00:16:52;6.80;;;4.10;;
68938;SDS011;59064;45.294;11.816;2023-06-26T00:19:17;8.50;;;4.70;;
68938;SDS011;59064;45.294;11.816;2023-06-26T00:21:43;7.70;;;4.50;;
68938;SDS011;59064;45.294;11.816;2023-06-26T00:24:16;8.80;;;4.30;;
68938;SDS011;59064;45.294;11.816;2023-06-26T00:26:42;9.40;;;3.90;;
68938;SDS011;59064;45.294;11.816;2023-06-26T00:29:11;8.60;;;4.90;;
68938;SDS011;59064;45.294;11.816;2023-06-26T00:31:36;8.30;;;4.60;;
68938;SDS011;59064;45.294;11.816;2023-06-26T00:34:03;7.40;;;4.40;;
68938;SDS011;59064;45.294;11.816;2023-06-26T00:36:28;8.10;;;4.20;;
68938;SDS011;59064;45.294;11.816;2023-06-26T00:38:54;7.80;;;3.90;;
68938;SDS011;59064;45.294;11.816;2023-06-26T00:41:19;6.70;;;4.00;;
68938;SDS011;59064;45.294;11.816;2023-06-26T00:43:45;8.50;;;4.40;;
68938;SDS011;59064;45.294;11.816;2023-06-26T00:46:12;6.40;;;3.90;;
68938;SDS011;59064;45.294;11.816;2023-06-26T00:48:38;6.50;;;3.90;;
68938;SDS011;59064;45.294;11.816;2023-06-26T00:51:06;9.10;;;4.60;;
68938;SDS011;59064;45.294;11.816;2023-06-26T00:53:32;9.20;;;4.40;;
68938;SDS011;59064;45.294;11.816;2023-06-26T00:55:58;6.80;;;4.30;;
68938;SDS011;59064;45.294;11.816;2023-06-26T00:58:24;8.40;;;4.20;;
68938;SDS011;59064;45.294;11.816;2023-06-26T01:00:51;7.20;;;3.70;;
68938;SDS011;59064;45.294;11.816;2023-06-26T01:03:17;6.80;;;4.00;;
68938;SDS011;59064;45.294;11.816;2023-06-26T01:05:47;6.30;;;3.90;;
68938;SDS011;59064;45.294;11.816;2023-06-26T01:08:15;6.90;;;4.30;;
68938;SDS011;59064;45.294;11.816;2023-06-26T01:10:41;6.60;;;3.80;;
68938;SDS011;59064;45.294;11.816;2023-06-26T01:13:06;8.20;;;4.10;;
68938;SDS011;59064;45.294;11.816;2023-06-26T01:15:33;7.20;;;4.00;;
68938;SDS011;59064;45.294;11.816;2023-06-26T01:17:58;8.70;;;4.60;;
68938;SDS011;59064;45.294;11.816;2023-06-26T01:20:25;9.20;;;4.70;;
68938;SDS011;59064;45.294;11.816;2023-06-26T01:23:03;7.80;;;4.70;;
68938;SDS011;59064;45.294;11.816;2023-06-26T01:28:43;9.10;;;4.60;;
68938;SDS011;59064;45.294;11.816;2023-06-26T01:31:10;7.40;;;4.60;;
68938;SDS011;59064;45.294;11.816;2023-06-26T01:33:37;7.90;;;4.70;;
68938;SDS011;59064;45.294;11.816;2023-06-26T01:36:03;9.50;;;5.60;;
68938;SDS011;59064;45.294;11.816;2023-06-26T01:38:30;7.90;;;5.10;;
68938;SDS011;59064;45.294;11.816;2023-06-26T01:40:55;9.00;;;4.80;;
68938;SDS011;59064;45.294;11.816;2023-06-26T01:51:34;8.40;;;4.90;;
68938;SDS011;59064;45.294;11.816;2023-06-26T01:54:03;11.80;;;5.50;;
68938;SDS011;59064;45.294;11.816;2023-06-26T01:56:34;8.60;;;5.50;;
68938;SDS011;59064;45.294;11.816;2023-06-26T01:59:03;8.70;;;5.30;;
68938;SDS011;59064;45.294;11.816;2023-06-26T02:01:31;9.30;;;6.00;;
68938;SDS011;59064;45.294;11.816;2023-06-26T02:03:58;9.00;;;5.20;;
68938;SDS011;59064;45.294;11.816;2023-06-26T02:06:24;10.70;;;6.10;;
68938;SDS011;59064;45.294;11.816;2023-06-26T02:08:50;8.80;;;6.00;;
68938;SDS011;59064;45.294;11.816;2023-06-26T02:11:16;11.30;;;5.90;;
68938;SDS011;59064;45.294;11.816;2023-06-26T02:13:41;10.40;;;6.30;;
68938;SDS011;59064;45.294;11.816;2023-06-26T02:16:07;10.10;;;5.80;;
68938;SDS011;59064;45.294;11.816;2023-06-26T02:18:32;9.80;;;6.10;;
68938;SDS011;59064;45.294;11.816;2023-06-26T02:20:58;11.10;;;5.80;;
68938;SDS011;59064;45.294;11.816;2023-06-26T02:23:23;10.90;;;6.00;;
68938;SDS011;59064;45.294;11.816;2023-06-26T02:25:48;11.80;;;5.70;;
68938;SDS011;59064;45.294;11.816;2023-06-26T02:28:14;9.30;;;5.70;;
68938;SDS011;59064;45.294;11.816;2023-06-26T02:30:39;9.20;;;5.50;;
68938;SDS011;59064;45.294;11.816;2023-06-26T02:33:05;11.60;;;6.00;;
68938;SDS011;59064;45.294;11.816;2023-06-26T02:35:30;10.90;;;6.30;;
68938;SDS011;59064;45.294;11.816;2023-06-26T02:37:58;9.00;;;5.50;;
68938;SDS011;59064;45.294;11.816;2023-06-26T02:40:23;10.30;;;5.70;;
68938;SDS011;59064;45.294;11.816;2023-06-26T02:42:48;8.90;;;5.30;;
68938;SDS011;59064;45.294;11.816;2023-06-26T02:45:14;8.80;;;5.50;;
68938;SDS011;59064;45.294;11.816;2023-06-26T02:47:39;10.30;;;5.60;;
68938;SDS011;59064;45.294;11.816;2023-06-26T02:50:06;10.80;;;6.00;;
68938;SDS011;59064;45.294;11.816;2023-06-26T02:52:32;10.10;;;5.60;;
68938;SDS011;59064;45.294;11.816;2023-06-26T02:54:57;9.10;;;5.10;;
68938;SDS011;59064;45.294;11.816;2023-06-26T02:57:23;10.30;;;5.80;;
68938;SDS011;59064;45.294;11.816;2023-06-26T02:59:48;12.00;;;5.70;;
68938;SDS011;59064;45.294;11.816;2023-06-26T03:02:14;12.80;;;5.60;;
68938;SDS011;59064;45.294;11.816;2023-06-26T03:04:39;9.90;;;5.90;;
68938;SDS011;59064;45.294;11.816;2023-06-26T03:07:05;9.70;;;5.40;;
68938;SDS011;59064;45.294;11.816;2023-06-26T03:09:30;9.40;;;5.50;;
68938;SDS011;59064;45.294;11.816;2023-06-26T03:11:55;10.80;;;5.90;;
68938;SDS011;59064;45.294;11.816;2023-06-26T03:14:21;9.80;;;5.60;;
68938;SDS011;59064;45.294;11.816;2023-06-26T03:16:47;10.10;;;5.50;;
68938;SDS011;59064;45.294;11.816;2023-06-26T03:19:12;10.30;;;5.40;;
68938;SDS011;59064;45.294;11.816;2023-06-26T03:21:38;9.30;;;5.40;;
68938;SDS011;59064;45.294;11.816;2023-06-26T03:24:03;11.50;;;5.50;;
68938;SDS011;59064;45.294;11.816;2023-06-26T03:26:29;12.40;;;5.80;;
68938;SDS011;59064;45.294;11.816;2023-06-26T03:28:54;10.30;;;6.50;;
68938;SDS011;59064;45.294;11.816;2023-06-26T03:31:20;11.50;;;6.60;;
68938;SDS011;59064;45.294;11.816;2023-06-26T03:33:46;12.10;;;5.90;;
68938;SDS011;59064;45.294;11.816;2023-06-26T03:36:12;13.20;;;6.80;;
68938;SDS011;59064;45.294;11.816;2023-06-26T03:38:38;10.70;;;6.30;;
68938;SDS011;59064;45.294;11.816;2023-06-26T03:41:03;12.90;;;6.70;;
68938;SDS011;59064;45.294;11.816;2023-06-26T03:43:29;10.20;;;6.00;;
68938;SDS011;59064;45.294;11.816;2023-06-26T03:45:54;10.80;;;6.60;;
68938;SDS011;59064;45.294;11.816;2023-06-26T03:48:19;9.80;;;5.70;;
68938;SDS011;59064;45.294;11.816;2023-06-26T03:50:45;11.50;;;5.90;;
68938;SDS011;59064;45.294;11.816;2023-06-26T03:53:10;9.60;;;5.20;;
68938;SDS011;59064;45.294;11.816;2023-06-26T03:55:37;12.00;;;6.20;;
68938;SDS011;59064;45.294;11.816;2023-06-26T03:58:03;9.20;;;5.90;;
68938;SDS011;59064;45.294;11.816;2023-06-26T04:00:29;10.10;;;5.90;;
68938;SDS011;59064;45.294;11.816;2023-06-26T04:02:55;10.80;;;5.80;;
68938;SDS011;59064;45.294;11.816;2023-06-26T04:05:20;9.70;;;5.50;;
68938;SDS011;59064;45.294;11.816;2023-06-26T04:07:50;8.80;;;5.70;;
68938;SDS011;59064;45.294;11.816;2023-06-26T04:10:16;9.60;;;6.30;;
68938;SDS011;59064;45.294;11.816;2023-06-26T04:12:41;7.40;;;4.50;;
68938;SDS011;59064;45.294;11.816;2023-06-26T04:15:07;9.00;;;5.80;;
68938;SDS011;59064;45.294;11.816;2023-06-26T04:17:33;9.50;;;5.40;;
68938;SDS011;59064;45.294;11.816;2023-06-26T04:19:58;9.10;;;6.00;;
68938;SDS011;59064;45.294;11.816;2023-06-26T04:22:24;8.50;;;5.30;;
68938;SDS011;59064;45.294;11.816;2023-06-26T04:24:50;10.10;;;5.30;;
68938;SDS011;59064;45.294;11.816;2023-06-26T04:27:16;10.40;;;5.60;;
68938;SDS011;59064;45.294;11.816;2023-06-26T04:29:42;9.00;;;6.00;;
68938;SDS011;59064;45.294;11.816;2023-06-26T04:32:08;9.50;;;5.40;;
68938;SDS011;59064;45.294;11.816;2023-06-26T04:34:33;11.60;;;5.80;;
68938;SDS011;59064;45.294;11.816;2023-06-26T04:37:00;9.70;;;5.60;;
68938;SDS011;59064;45.294;11.816;2023-06-26T04:39:28;9.70;;;4.90;;
68938;SDS011;59064;45.294;11.816;2023-06-26T04:41:55;9.80;;;6.00;;
68938;SDS011;59064;45.294;11.816;2023-06-26T04:44:20;8.80;;;5.80;;
68938;SDS011;59064;45.294;11.816;2023-06-26T04:46:46;7.80;;;5.10;;
68938;SDS011;59064;45.294;11.816;2023-06-26T04:49:12;9.90;;;5.80;;
68938;SDS011;59064;45.294;11.816;2023-06-26T04:51:38;10.00;;;5.40;;
68938;SDS011;59064;45.294;11.816;2023-06-26T04:54:06;9.70;;;5.80;;
68938;SDS011;59064;45.294;11.816;2023-06-26T04:56:35;11.20;;;7.00;;
68938;SDS011;59064;45.294;11.816;2023-06-26T04:59:01;10.60;;;7.10;;
68938;SDS011;59064;45.294;11.816;2023-06-26T05:01:28;9.60;;;6.80;;
68938;SDS011;59064;45.294;11.816;2023-06-26T05:04:01;12.90;;;8.20;;
68938;SDS011;59064;45.294;11.816;2023-06-26T05:06:27;14.00;;;8.00;;
68938;SDS011;59064;45.294;11.816;2023-06-26T05:08:52;9.80;;;6.50;;
68938;SDS011;59064;45.294;11.816;2023-06-26T05:11:18;15.40;;;8.50;;
68938;SDS011;59064;45.294;11.816;2023-06-26T05:13:44;12.60;;;8.30;;
68938;SDS011;59064;45.294;11.816;2023-06-26T05:16:09;11.70;;;8.30;;
68938;SDS011;59064;45.294;11.816;2023-06-26T05:18:35;12.20;;;7.00;;
68938;SDS011;59064;45.294;11.816;2023-06-26T05:21:01;13.10;;;8.80;;
68938;SDS011;59064;45.294;11.816;2023-06-26T05:23:28;11.20;;;7.60;;
68938;SDS011;59064;45.294;11.816;2023-06-26T05:25:56;17.00;;;9.60;;
68938;SDS011;59064;45.294;11.816;2023-06-26T05:28:22;11.50;;;9.00;;
68938;SDS011;59064;45.294;11.816;2023-06-26T05:30:50;17.70;;;9.40;;
68938;SDS011;59064;45.294;11.816;2023-06-26T05:33:18;14.20;;;9.20;;
68938;SDS011;59064;45.294;11.816;2023-06-26T05:35:47;13.80;;;9.40;;
68938;SDS011;59064;45.294;11.816;2023-06-26T05:38:13;14.00;;;8.20;;
68938;SDS011;59064;45.294;11.816;2023-06-26T05:40:39;14.00;;;9.70;;
68938;SDS011;59064;45.294;11.816;2023-06-26T05:43:06;13.70;;;9.90;;
68938;SDS011;59064;45.294;11.816;2023-06-26T05:45:32;11.30;;;8.40;;
68938;SDS011;59064;45.294;11.816;2023-06-26T05:47:58;12.10;;;9.30;;
68938;SDS011;59064;45.294;11.816;2023-06-26T05:50:23;12.00;;;8.50;;
68938;SDS011;59064;45.294;11.816;2023-06-26T05:52:49;14.70;;;9.50;;
68938;SDS011;59064;45.294;11.816;2023-06-26T05:55:15;16.40;;;9.10;;
68938;SDS011;59064;45.294;11.816;2023-06-26T05:57:41;12.20;;;8.70;;
68938;SDS011;59064;45.294;11.816;2023-06-26T06:00:07;17.10;;;8.30;;
68938;SDS011;59064;45.294;11.816;2023-06-26T06:02:36;12.20;;;7.80;;
68938;SDS011;59064;45.294;11.816;2023-06-26T06:05:02;10.90;;;7.20;;
68938;SDS011;59064;45.294;11.816;2023-06-26T06:07:28;10.60;;;7.60;;
68938;SDS011;59064;45.294;11.816;2023-06-26T06:09:54;11.40;;;7.90;;
68938;SDS011;59064;45.294;11.816;2023-06-26T06:12:19;11.60;;;8.20;;
68938;SDS011;59064;45.294;11.816;2023-06-26T06:14:45;15.40;;;9.20;;
68938;SDS011;59064;45.294;11.816;2023-06-26T06:17:10;11.70;;;8.10;;
68938;SDS011;59064;45.294;11.816;2023-06-26T06:19:36;14.20;;;9.30;;
68938;SDS011;59064;45.294;11.816;2023-06-26T06:22:01;12.10;;;7.90;;
68938;SDS011;59064;45.294;11.816;2023-06-26T06:24:27;11.70;;;7.70;;
68938;SDS011;59064;45.294;11.816;2023-06-26T06:26:52;12.90;;;8.30;;
68938;SDS011;59064;45.294;11.816;2023-06-26T06:29:18;9.90;;;7.30;;
68938;SDS011;59064;45.294;11.816;2023-06-26T06:31:44;14.30;;;9.30;;
68938;SDS011;59064;45.294;11.816;2023-06-26T06:34:09;14.00;;;7.90;;
68938;SDS011;59064;45.294;11.816;2023-06-26T06:36:35;13.20;;;9.50;;
68938;SDS011;59064;45.294;11.816;2023-06-26T06:39:00;12.10;;;8.60;;
68938;SDS011;59064;45.294;11.816;2023-06-26T06:41:26;11.30;;;7.90;;
68938;SDS011;59064;45.294;11.816;2023-06-26T06:43:51;11.70;;;8.90;;
68938;SDS011;59064;45.294;11.816;2023-06-26T06:46:17;10.80;;;7.30;;
68938;SDS011;59064;45.294;11.816;2023-06-26T06:48:42;12.10;;;8.40;;
68938;SDS011;59064;45.294;11.816;2023-06-26T06:51:08;12.40;;;8.70;;
68938;SDS011;59064;45.294;11.816;2023-06-26T06:53:33;14.20;;;8.40;;
68938;SDS011;59064;45.294;11.816;2023-06-26T06:55:59;13.70;;;8.70;;
68938;SDS011;59064;45.294;11.816;2023-06-26T06:58:24;11.10;;;7.20;;
68938;SDS011;59064;45.294;11.816;2023-06-26T07:00:50;12.10;;;9.10;;
68938;SDS011;59064;45.294;11.816;2023-06-26T07:03:17;12.00;;;7.90;;
68938;SDS011;59064;45.294;11.816;2023-06-26T07:05:42;12.10;;;8.30;;
68938;SDS011;59064;45.294;11.816;2023-06-26T07:08:08;13.40;;;8.10;;
68938;SDS011;59064;45.294;11.816;2023-06-26T07:10:34;11.30;;;8.80;;
68938;SDS011;59064;45.294;11.816;2023-06-26T07:13:00;13.70;;;8.20;;
68938;SDS011;59064;45.294;11.816;2023-06-26T07:15:25;9.10;;;6.40;;
68938;SDS011;59064;45.294;11.816;2023-06-26T07:17:51;10.20;;;6.80;;
68938;SDS011;59064;45.294;11.816;2023-06-26T07:20:16;11.20;;;7.40;;
68938;SDS011;59064;45.294;11.816;2023-06-26T07:22:42;12.10;;;6.60;;
68938;SDS011;59064;45.294;11.816;2023-06-26T07:25:09;9.00;;;5.40;;
68938;SDS011;59064;45.294;11.816;2023-06-26T07:27:36;10.40;;;7.10;;
68938;SDS011;59064;45.294;11.816;2023-06-26T07:30:02;11.50;;;7.20;;
68938;SDS011;59064;45.294;11.816;2023-06-26T07:32:28;12.20;;;7.50;;
68938;SDS011;59064;45.294;11.816;2023-06-26T07:34:53;8.10;;;5.60;;
68938;SDS011;59064;45.294;11.816;2023-06-26T07:37:19;8.60;;;5.70;;
68938;SDS011;59064;45.294;11.816;2023-06-26T07:39:44;10.70;;;6.40;;
68938;SDS011;59064;45.294;11.816;2023-06-26T07:42:10;9.80;;;5.20;;
68938;SDS011;59064;45.294;11.816;2023-06-26T07:44:35;10.40;;;6.60;;
68938;SDS011;59064;45.294;11.816;2023-06-26T07:47:01;11.30;;;5.70;;
68938;SDS011;59064;45.294;11.816;2023-06-26T07:49:27;9.90;;;6.20;;
68938;SDS011;59064;45.294;11.816;2023-06-26T07:51:52;10.40;;;6.10;;
68938;SDS011;59064;45.294;11.816;2023-06-26T07:54:17;8.20;;;4.60;;
68938;SDS011;59064;45.294;11.816;2023-06-26T07:56:56;8.20;;;5.60;;
68938;SDS011;59064;45.294;11.816;2023-06-26T07:59:26;9.10;;;5.30;;
68938;SDS011;59064;45.294;11.816;2023-06-26T08:01:53;7.50;;;5.30;;
68938;SDS011;59064;45.294;11.816;2023-06-26T08:04:20;10.60;;;5.40;;
68938;SDS011;59064;45.294;11.816;2023-06-26T08:06:50;7.90;;;5.00;;
68938;SDS011;59064;45.294;11.816;2023-06-26T08:09:17;6.60;;;4.20;;
68938;SDS011;59064;45.294;11.816;2023-06-26T08:11:44;7.00;;;4.40;;
68938;SDS011;59064;45.294;11.816;2023-06-26T08:14:10;7.80;;;4.60;;
68938;SDS011;59064;45.294;11.816;2023-06-26T08:16:37;5.60;;;3.80;;
68938;SDS011;59064;45.294;11.816;2023-06-26T08:19:03;6.80;;;4.50;;
68938;SDS011;59064;45.294;11.816;2023-06-26T08:21:29;7.10;;;4.00;;
68938;SDS011;59064;45.294;11.816;2023-06-26T08:23:54;6.80;;;4.30;;
68938;SDS011;59064;45.294;11.816;2023-06-26T08:26:20;6.10;;;4.10;;
68938;SDS011;59064;45.294;11.816;2023-06-26T08:28:45;6.60;;;4.70;;
68938;SDS011;59064;45.294;11.816;2023-06-26T08:31:11;8.80;;;4.60;;
68938;SDS011;59064;45.294;11.816;2023-06-26T08:33:36;7.80;;;4.70;;
68938;SDS011;59064;45.294;11.816;2023-06-26T08:36:02;11.50;;;4.50;;
68938;SDS011;59064;45.294;11.816;2023-06-26T08:38:27;8.60;;;4.00;;
68938;SDS011;59064;45.294;11.816;2023-06-26T08:40:53;6.00;;;4.50;;
68938;SDS011;59064;45.294;11.816;2023-06-26T08:43:18;7.00;;;4.30;;
68938;SDS011;59064;45.294;11.816;2023-06-26T08:45:45;8.10;;;4.50;;
68938;SDS011;59064;45.294;11.816;2023-06-26T08:48:11;5.40;;;3.60;;
68938;SDS011;59064;45.294;11.816;2023-06-26T08:50:38;8.30;;;4.70;;
68938;SDS011;59064;45.294;11.816;2023-06-26T08:55:46;6.70;;;4.50;;
68938;SDS011;59064;45.294;11.816;2023-06-26T08:58:17;6.30;;;4.00;;
68938;SDS011;59064;45.294;11.816;2023-06-26T09:00:42;7.20;;;3.80;;
68938;SDS011;59064;45.294;11.816;2023-06-26T09:03:08;6.50;;;4.50;;
68938;SDS011;59064;45.294;11.816;2023-06-26T09:05:35;7.40;;;4.00;;
68938;SDS011;59064;45.294;11.816;2023-06-26T09:08:02;6.50;;;4.40;;
68938;SDS011;59064;45.294;11.816;2023-06-26T09:10:28;6.00;;;3.90;;
68938;SDS011;59064;45.294;11.816;2023-06-26T09:12:56;9.90;;;3.70;;
68938;SDS011;59064;45.294;11.816;2023-06-26T09:15:23;8.70;;;4.40;;
68938;SDS011;59064;45.294;11.816;2023-06-26T09:17:49;6.10;;;3.90;;
68938;SDS011;59064;45.294;11.816;2023-06-26T09:20:15;6.10;;;4.00;;
68938;SDS011;59064;45.294;11.816;2023-06-26T09:22:41;7.20;;;4.30;;
68938;SDS011;59064;45.294;11.816;2023-06-26T09:25:12;6.70;;;4.10;;
68938;SDS011;59064;45.294;11.816;2023-06-26T09:27:37;6.80;;;4.00;;
68938;SDS011;59064;45.294;11.816;2023-06-26T09:30:03;9.80;;;4.50;;
68938;SDS011;59064;45.294;11.816;2023-06-26T09:32:29;6.30;;;3.60;;
68938;SDS011;59064;45.294;11.816;2023-06-26T09:34:54;6.20;;;4.50;;
68938;SDS011;59064;45.294;11.816;2023-06-26T09:37:21;6.30;;;4.00;;
68938;SDS011;59064;45.294;11.816;2023-06-26T09:39:46;7.60;;;3.70;;
68938;SDS011;59064;45.294;11.816;2023-06-26T09:42:13;8.00;;;4.20;;
68938;SDS011;59064;45.294;11.816;2023-06-26T09:44:43;7.10;;;4.20;;
68938;SDS011;59064;45.294;11.816;2023-06-26T09:47:10;6.10;;;3.90;;
68938;SDS011;59064;45.294;11.816;2023-06-26T09:49:35;8.60;;;4.20;;
68938;SDS011;59064;45.294;11.816;2023-06-26T09:52:01;7.60;;;4.00;;
68938;SDS011;59064;45.294;11.816;2023-06-26T09:54:27;6.90;;;4.10;;
68938;SDS011;59064;45.294;11.816;2023-06-26T09:56:56;5.90;;;3.80;;
68938;SDS011;59064;45.294;11.816;2023-06-26T09:59:32;6.20;;;3.70;;
68938;SDS011;59064;45.294;11.816;2023-06-26T10:01:59;7.30;;;4.50;;
68938;SDS011;59064;45.294;11.816;2023-06-26T10:04:25;7.40;;;4.40;;
68938;SDS011;59064;45.294;11.816;2023-06-26T10:06:51;6.00;;;3.70;;
68938;SDS011;59064;45.294;11.816;2023-06-26T10:09:19;6.10;;;3.90;;
68938;SDS011;59064;45.294;11.816;2023-06-26T10:11:47;6.40;;;3.80;;
68938;SDS011;59064;45.294;11.816;2023-06-26T10:14:26;6.50;;;3.60;;
68938;SDS011;59064;45.294;11.816;2023-06-26T10:16:52;6.40;;;3.80;;
68938;SDS011;59064;45.294;11.816;2023-06-26T10:19:23;7.10;;;3.50;;
68938;SDS011;59064;45.294;11.816;2023-06-26T10:21:51;7.30;;;3.20;;
68938;SDS011;59064;45.294;11.816;2023-06-26T10:24:18;6.10;;;3.70;;
68938;SDS011;59064;45.294;11.816;2023-06-26T10:26:45;5.40;;;3.50;;
68938;SDS011;59064;45.294;11.816;2023-06-26T10:29:13;5.80;;;3.80;;
68938;SDS011;59064;45.294;11.816;2023-06-26T10:31:42;6.20;;;3.70;;
68938;SDS011;59064;45.294;11.816;2023-06-26T10:34:10;8.00;;;4.10;;
68938;SDS011;59064;45.294;11.816;2023-06-26T10:36:36;5.90;;;3.70;;
68938;SDS011;59064;45.294;11.816;2023-06-26T10:39:03;6.40;;;4.00;;
68938;SDS011;59064;45.294;11.816;2023-06-26T10:41:36;5.80;;;3.90;;
68938;SDS011;59064;45.294;11.816;2023-06-26T10:44:10;7.40;;;3.90;;
68938;SDS011;59064;45.294;11.816;2023-06-26T10:46:53;6.00;;;3.50;;
68938;SDS011;59064;45.294;11.816;2023-06-26T10:49:27;7.10;;;4.20;;
68938;SDS011;59064;45.294;11.816;2023-06-26T10:51:54;6.00;;;3.40;;
68938;SDS011;59064;45.294;11.816;2023-06-26T10:54:23;7.00;;;3.60;;
68938;SDS011;59064;45.294;11.816;2023-06-26T10:56:54;6.70;;;3.60;;
68938;SDS011;59064;45.294;11.816;2023-06-26T10:59:24;6.10;;;3.90;;
68938;SDS011;59064;45.294;11.816;2023-06-26T11:01:54;7.80;;;4.20;;
68938;SDS011;59064;45.294;11.816;2023-06-26T11:07:20;5.40;;;3.90;;
68938;SDS011;59064;45.294;11.816;2023-06-26T11:09:54;6.90;;;4.00;;
68938;SDS011;59064;45.294;11.816;2023-06-26T11:15:08;4.80;;;3.80;;
68938;SDS011;59064;45.294;11.816;2023-06-26T11:17:34;6.10;;;4.20;;
68938;SDS011;59064;45.294;11.816;2023-06-26T11:20:01;6.30;;;4.30;;
68938;SDS011;59064;45.294;11.816;2023-06-26T11:22:29;6.20;;;4.10;;
68938;SDS011;59064;45.294;11.816;2023-06-26T11:24:59;5.90;;;3.40;;
68938;SDS011;59064;45.294;11.816;2023-06-26T11:27:24;8.40;;;3.80;;
68938;SDS011;59064;45.294;11.816;2023-06-26T11:29:50;7.10;;;4.00;;
68938;SDS011;59064;45.294;11.816;2023-06-26T11:32:15;7.90;;;3.90;;
68938;SDS011;59064;45.294;11.816;2023-06-26T11:34:40;5.50;;;3.50;;
68938;SDS011;59064;45.294;11.816;2023-06-26T11:37:08;8.70;;;4.30;;
68938;SDS011;59064;45.294;11.816;2023-06-26T11:39:33;5.60;;;4.00;;
68938;SDS011;59064;45.294;11.816;2023-06-26T11:41:59;5.70;;;3.70;;
68938;SDS011;59064;45.294;11.816;2023-06-26T11:44:29;5.70;;;4.00;;
68938;SDS011;59064;45.294;11.816;2023-06-26T11:46:56;4.70;;;3.50;;
68938;SDS011;59064;45.294;11.816;2023-06-26T11:49:22;7.90;;;3.70;;
68938;SDS011;59064;45.294;11.816;2023-06-26T11:51:52;7.60;;;4.10;;
68938;SDS011;59064;45.294;11.816;2023-06-26T11:54:27;6.70;;;4.00;;
68938;SDS011;59064;45.294;11.816;2023-06-26T11:56:56;5.10;;;3.60;;
68938;SDS011;59064;45.294;11.816;2023-06-26T11:59:24;5.40;;;3.50;;
68938;SDS011;59064;45.294;11.816;2023-06-26T12:01:58;6.00;;;4.00;;
68938;SDS011;59064;45.294;11.816;2023-06-26T12:04:23;7.80;;;3.80;;
68938;SDS011;59064;45.294;11.816;2023-06-26T12:06:50;7.30;;;3.60;;
68938;SDS011;59064;45.294;11.816;2023-06-26T12:09:18;6.10;;;3.70;;
68938;SDS011;59064;45.294;11.816;2023-06-26T12:11:46;6.20;;;3.70;;
68938;SDS011;59064;45.294;11.816;2023-06-26T12:14:16;5.60;;;3.40;;
68938;SDS011;59064;45.294;11.816;2023-06-26T12:16:43;5.90;;;3.90;;
68938;SDS011;59064;45.294;11.816;2023-06-26T12:19:09;5.90;;;4.00;;
68938;SDS011;59064;45.294;11.816;2023-06-26T12:24:07;4.90;;;3.60;;
68938;SDS011;59064;45.294;11.816;2023-06-26T12:26:34;6.10;;;4.00;;
68938;SDS011;59064;45.294;11.816;2023-06-26T12:31:32;7.20;;;4.10;;
68938;SDS011;59064;45.294;11.816;2023-06-26T12:33:59;5.90;;;3.70;;
68938;SDS011;59064;45.294;11.816;2023-06-26T12:36:26;6.70;;;4.20;;
68938;SDS011;59064;45.294;11.816;2023-06-26T12:38:54;5.20;;;3.70;;
68938;SDS011;59064;45.294;11.816;2023-06-26T12:41:23;7.90;;;4.30;;
68938;SDS011;59064;45.294;11.816;2023-06-26T12:43:49;5.10;;;3.30;;
68938;SDS011;59064;45.294;11.816;2023-06-26T12:46:15;7.40;;;3.90;;
68938;SDS011;59064;45.294;11.816;2023-06-26T12:48:41;5.90;;;4.10;;
68938;SDS011;59064;45.294;11.816;2023-06-26T12:51:18;7.00;;;3.80;;
68938;SDS011;59064;45.294;11.816;2023-06-26T12:53:43;6.60;;;4.40;;
68938;SDS011;59064;45.294;11.816;2023-06-26T12:56:09;5.60;;;4.10;;
68938;SDS011;59064;45.294;11.816;2023-06-26T12:58:36;7.40;;;4.10;;
68938;SDS011;59064;45.294;11.816;2023-06-26T13:01:03;6.00;;;4.10;;
68938;SDS011;59064;45.294;11.816;2023-06-26T13:03:30;6.10;;;3.70;;
68938;SDS011;59064;45.294;11.816;2023-06-26T13:05:55;5.30;;;3.50;;
68938;SDS011;59064;45.294;11.816;2023-06-26T13:08:21;6.00;;;3.90;;
68938;SDS011;59064;45.294;11.816;2023-06-26T13:10:47;7.80;;;4.20;;
68938;SDS011;59064;45.294;11.816;2023-06-26T13:13:13;6.80;;;3.80;;
68938;SDS011;59064;45.294;11.816;2023-06-26T13:15:38;8.80;;;3.90;;
68938;SDS011;59064;45.294;11.816;2023-06-26T13:18:04;8.10;;;4.00;;
68938;SDS011;59064;45.294;11.816;2023-06-26T13:20:29;7.50;;;4.30;;
68938;SDS011;59064;45.294;11.816;2023-06-26T13:22:55;5.90;;;3.70;;
68938;SDS011;59064;45.294;11.816;2023-06-26T13:25:21;6.00;;;4.00;;
68938;SDS011;59064;45.294;11.816;2023-06-26T13:27:47;7.50;;;3.70;;
68938;SDS011;59064;45.294;11.816;2023-06-26T13:30:13;6.70;;;3.80;;
68938;SDS011;59064;45.294;11.816;2023-06-26T13:32:39;6.00;;;3.70;;
68938;SDS011;59064;45.294;11.816;2023-06-26T13:35:05;5.00;;;3.70;;
68938;SDS011;59064;45.294;11.816;2023-06-26T13:37:31;7.50;;;4.10;;
68938;SDS011;59064;45.294;11.816;2023-06-26T13:39:57;5.40;;;3.90;;
68938;SDS011;59064;45.294;11.816;2023-06-26T13:42:24;7.10;;;4.00;;
68938;SDS011;59064;45.294;11.816;2023-06-26T13:44:49;7.70;;;4.00;;
68938;SDS011;59064;45.294;11.816;2023-06-26T13:47:15;5.80;;;3.70;;
68938;SDS011;59064;45.294;11.816;2023-06-26T13:49:41;6.00;;;3.80;;
68938;SDS011;59064;45.294;11.816;2023-06-26T13:52:06;7.30;;;4.00;;
68938;SDS011;59064;45.294;11.816;2023-06-26T13:54:35;6.00;;;3.80;;
68938;SDS011;59064;45.294;11.816;2023-06-26T13:57:04;7.50;;;3.80;;
68938;SDS011;59064;45.294;11.816;2023-06-26T13:59:30;7.60;;;3.40;;
68938;SDS011;59064;45.294;11.816;2023-06-26T14:01:56;4.90;;;3.60;;
68938;SDS011;59064;45.294;11.816;2023-06-26T14:04:22;5.30;;;3.70;;
68938;SDS011;59064;45.294;11.816;2023-06-26T14:06:47;6.00;;;4.00;;
68938;SDS011;59064;45.294;11.816;2023-06-26T14:09:13;6.40;;;3.80;;
68938;SDS011;59064;45.294;11.816;2023-06-26T14:11:39;9.00;;;3.60;;
68938;SDS011;59064;45.294;11.816;2023-06-26T14:14:05;6.20;;;3.20;;
68938;SDS011;59064;45.294;11.816;2023-06-26T14:16:30;6.20;;;3.80;;
68938;SDS011;59064;45.294;11.816;2023-06-26T14:18:56;5.60;;;4.10;;
68938;SDS011;59064;45.294;11.816;2023-06-26T14:21:22;9.20;;;4.20;;
68938;SDS011;59064;45.294;11.816;2023-06-26T14:23:47;5.40;;;3.80;;
68938;SDS011;59064;45.294;11.816;2023-06-26T14:26:13;4.50;;;3.30;;
68938;SDS011;59064;45.294;11.816;2023-06-26T14:28:38;6.00;;;3.60;;
68938;SDS011;59064;45.294;11.816;2023-06-26T14:31:04;7.50;;;4.00;;
68938;SDS011;59064;45.294;11.816;2023-06-26T14:33:30;5.70;;;3.70;;
68938;SDS011;59064;45.294;11.816;2023-06-26T14:35:55;8.30;;;3.80;;
68938;SDS011;59064;45.294;11.816;2023-06-26T14:38:21;6.80;;;3.40;;
68938;SDS011;59064;45.294;11.816;2023-06-26T14:40:47;5.30;;;3.50;;
68938;SDS011;59064;45.294;11.816;2023-06-26T14:43:12;5.40;;;3.70;;
68938;SDS011;59064;45.294;11.816;2023-06-26T14:45:38;5.70;;;3.60;;
68938;SDS011;59064;45.294;11.816;2023-06-26T14:48:03;5.10;;;3.60;;
68938;SDS011;59064;45.294;11.816;2023-06-26T14:50:29;5.30;;;3.50;;
68938;SDS011;59064;45.294;11.816;2023-06-26T14:52:54;5.70;;;3.80;;